sensor_id;sensor_type;location;lat;lon;timestamp;P1;durP1;ratioP1;P2;durP2;ratioP2
74309;SDS011;62722;51.142;17.052;2023-08-08T00:01:10;5.68;;;1.67;;
74309;SDS011;62722;51.142;17.052;2023-08-08T00:03:37;3.13;;;1.30;;
74309;SDS011;62722;51.142;17.052;2023-08-08T00:06:04;2.60;;;1.30;;
74309;SDS011;62722;51.142;17.052;2023-08-08T00:08:31;5.13;;;1.50;;
74309;SDS011;62722;51.142;17.052;2023-08-08T00:10:58;4.93;;;1.48;;
74309;SDS011;62722;51.142;17.052;2023-08-08T00:13:26;4.30;;;1.30;;
74309;SDS011;62722;51.142;17.052;2023-08-08T00:15:54;3.38;;;1.17;;
74309;SDS011;62722;51.142;17.052;2023-08-08T00:18:23;4.57;;;1.63;;
74309;SDS011;62722;51.142;17.052;2023-08-08T00:20:50;4.63;;;1.50;;
74309;SDS011;62722;51.142;17.052;2023-08-08T00:23:17;3.72;;;1.45;;
74309;SDS011;62722;51.142;17.052;2023-08-08T00:25:46;4.20;;;1.90;;
74309;SDS011;62722;51.142;17.052;2023-08-08T00:28:15;5.15;;;1.65;;
74309;SDS011;62722;51.142;17.052;2023-08-08T00:30:43;4.13;;;1.48;;
74309;SDS011;62722;51.142;17.052;2023-08-08T00:33:10;3.58;;;1.60;;
74309;SDS011;62722;51.142;17.052;2023-08-08T00:35:39;5.72;;;1.40;;
74309;SDS011;62722;51.142;17.052;2023-08-08T00:38:07;5.55;;;1.48;;
74309;SDS011;62722;51.142;17.052;2023-08-08T00:40:35;4.53;;;1.45;;
74309;SDS011;62722;51.142;17.052;2023-08-08T00:43:02;3.25;;;1.20;;
74309;SDS011;62722;51.142;17.052;2023-08-08T00:45:30;3.22;;;1.65;;
74309;SDS011;62722;51.142;17.052;2023-08-08T00:47:57;4.72;;;1.58;;
74309;SDS011;62722;51.142;17.052;2023-08-08T00:50:24;4.00;;;1.52;;
74309;SDS011;62722;51.142;17.052;2023-08-08T00:52:55;4.05;;;1.23;;
74309;SDS011;62722;51.142;17.052;2023-08-08T00:55:22;3.53;;;1.40;;
74309;SDS011;62722;51.142;17.052;2023-08-08T00:57:50;3.50;;;1.30;;
74309;SDS011;62722;51.142;17.052;2023-08-08T01:00:18;3.30;;;1.20;;
74309;SDS011;62722;51.142;17.052;2023-08-08T01:02:45;3.90;;;1.40;;
74309;SDS011;62722;51.142;17.052;2023-08-08T01:05:12;3.13;;;1.40;;
74309;SDS011;62722;51.142;17.052;2023-08-08T01:07:41;3.05;;;1.35;;
74309;SDS011;62722;51.142;17.052;2023-08-08T01:10:12;3.75;;;1.30;;
74309;SDS011;62722;51.142;17.052;2023-08-08T01:12:41;4.55;;;1.70;;
74309;SDS011;62722;51.142;17.052;2023-08-08T01:15:10;5.65;;;1.50;;
74309;SDS011;62722;51.142;17.052;2023-08-08T01:17:38;6.30;;;1.48;;
74309;SDS011;62722;51.142;17.052;2023-08-08T01:20:06;5.18;;;1.42;;
74309;SDS011;62722;51.142;17.052;2023-08-08T01:22:35;3.40;;;1.20;;
74309;SDS011;62722;51.142;17.052;2023-08-08T01:25:04;5.53;;;1.50;;
74309;SDS011;62722;51.142;17.052;2023-08-08T01:27:32;4.13;;;1.50;;
74309;SDS011;62722;51.142;17.052;2023-08-08T01:29:59;6.18;;;1.50;;
74309;SDS011;62722;51.142;17.052;2023-08-08T01:32:26;4.10;;;1.42;;
74309;SDS011;62722;51.142;17.052;2023-08-08T01:34:53;6.85;;;1.63;;
74309;SDS011;62722;51.142;17.052;2023-08-08T01:37:22;3.25;;;1.40;;
74309;SDS011;62722;51.142;17.052;2023-08-08T01:39:53;4.70;;;1.95;;
74309;SDS011;62722;51.142;17.052;2023-08-08T01:42:22;4.82;;;1.42;;
74309;SDS011;62722;51.142;17.052;2023-08-08T01:44:49;6.38;;;2.03;;
74309;SDS011;62722;51.142;17.052;2023-08-08T01:47:17;5.65;;;1.92;;
74309;SDS011;62722;51.142;17.052;2023-08-08T01:49:44;3.95;;;1.30;;
74309;SDS011;62722;51.142;17.052;2023-08-08T01:52:11;2.92;;;1.33;;
74309;SDS011;62722;51.142;17.052;2023-08-08T01:54:38;4.32;;;1.77;;
74309;SDS011;62722;51.142;17.052;2023-08-08T01:57:06;2.88;;;1.27;;
74309;SDS011;62722;51.142;17.052;2023-08-08T01:59:34;5.00;;;1.75;;
74309;SDS011;62722;51.142;17.052;2023-08-08T02:02:01;6.20;;;1.38;;
74309;SDS011;62722;51.142;17.052;2023-08-08T02:04:28;3.15;;;1.50;;
74309;SDS011;62722;51.142;17.052;2023-08-08T02:06:55;3.60;;;1.55;;
74309;SDS011;62722;51.142;17.052;2023-08-08T02:09:22;3.72;;;1.40;;
74309;SDS011;62722;51.142;17.052;2023-08-08T02:11:49;4.32;;;1.75;;
74309;SDS011;62722;51.142;17.052;2023-08-08T02:14:16;4.25;;;1.58;;
74309;SDS011;62722;51.142;17.052;2023-08-08T02:16:45;2.90;;;1.33;;
74309;SDS011;62722;51.142;17.052;2023-08-08T02:19:12;3.65;;;1.40;;
74309;SDS011;62722;51.142;17.052;2023-08-08T02:21:40;4.38;;;1.52;;
74309;SDS011;62722;51.142;17.052;2023-08-08T02:24:07;3.72;;;1.40;;
74309;SDS011;62722;51.142;17.052;2023-08-08T02:26:34;4.38;;;1.50;;
74309;SDS011;62722;51.142;17.052;2023-08-08T02:29:01;5.43;;;1.52;;
74309;SDS011;62722;51.142;17.052;2023-08-08T02:31:28;4.18;;;1.38;;
74309;SDS011;62722;51.142;17.052;2023-08-08T02:33:57;2.97;;;1.30;;
74309;SDS011;62722;51.142;17.052;2023-08-08T02:36:24;5.38;;;1.83;;
74309;SDS011;62722;51.142;17.052;2023-08-08T02:38:51;3.08;;;1.33;;
74309;SDS011;62722;51.142;17.052;2023-08-08T02:41:19;3.85;;;1.52;;
74309;SDS011;62722;51.142;17.052;2023-08-08T02:43:46;4.25;;;1.40;;
74309;SDS011;62722;51.142;17.052;2023-08-08T02:46:14;3.28;;;1.15;;
74309;SDS011;62722;51.142;17.052;2023-08-08T02:48:41;3.42;;;1.48;;
74309;SDS011;62722;51.142;17.052;2023-08-08T02:51:09;4.15;;;1.52;;
74309;SDS011;62722;51.142;17.052;2023-08-08T02:53:36;4.18;;;1.27;;
74309;SDS011;62722;51.142;17.052;2023-08-08T02:56:04;3.28;;;1.35;;
74309;SDS011;62722;51.142;17.052;2023-08-08T02:58:31;4.30;;;1.50;;
74309;SDS011;62722;51.142;17.052;2023-08-08T03:00:58;3.38;;;1.40;;
74309;SDS011;62722;51.142;17.052;2023-08-08T03:03:25;4.90;;;1.50;;
74309;SDS011;62722;51.142;17.052;2023-08-08T03:05:52;3.95;;;1.67;;
74309;SDS011;62722;51.142;17.052;2023-08-08T03:08:20;2.72;;;1.30;;
74309;SDS011;62722;51.142;17.052;2023-08-08T03:10:47;2.72;;;1.27;;
74309;SDS011;62722;51.142;17.052;2023-08-08T03:13:13;5.78;;;1.58;;
74309;SDS011;62722;51.142;17.052;2023-08-08T03:15:40;2.63;;;1.38;;
74309;SDS011;62722;51.142;17.052;2023-08-08T03:18:07;3.58;;;1.55;;
74309;SDS011;62722;51.142;17.052;2023-08-08T03:20:34;3.28;;;1.30;;
74309;SDS011;62722;51.142;17.052;2023-08-08T03:23:01;4.07;;;1.33;;
74309;SDS011;62722;51.142;17.052;2023-08-08T03:25:30;4.63;;;1.58;;
74309;SDS011;62722;51.142;17.052;2023-08-08T03:27:57;3.80;;;1.55;;
74309;SDS011;62722;51.142;17.052;2023-08-08T03:30:24;3.90;;;1.20;;
74309;SDS011;62722;51.142;17.052;2023-08-08T03:32:51;3.95;;;1.77;;
74309;SDS011;62722;51.142;17.052;2023-08-08T03:35:18;3.55;;;1.25;;
74309;SDS011;62722;51.142;17.052;2023-08-08T03:37:45;4.15;;;1.42;;
74309;SDS011;62722;51.142;17.052;2023-08-08T03:40:12;4.10;;;1.63;;
74309;SDS011;62722;51.142;17.052;2023-08-08T03:42:41;5.88;;;1.40;;
74309;SDS011;62722;51.142;17.052;2023-08-08T03:45:09;3.17;;;1.40;;
74309;SDS011;62722;51.142;17.052;2023-08-08T03:47:36;2.97;;;1.17;;
74309;SDS011;62722;51.142;17.052;2023-08-08T03:50:04;4.43;;;1.90;;
74309;SDS011;62722;51.142;17.052;2023-08-08T03:52:31;7.70;;;1.70;;
74309;SDS011;62722;51.142;17.052;2023-08-08T03:55:01;5.25;;;2.03;;
74309;SDS011;62722;51.142;17.052;2023-08-08T03:57:28;4.43;;;1.70;;
74309;SDS011;62722;51.142;17.052;2023-08-08T03:59:57;3.40;;;1.50;;
74309;SDS011;62722;51.142;17.052;2023-08-08T04:02:24;4.60;;;1.52;;
74309;SDS011;62722;51.142;17.052;2023-08-08T04:04:51;4.97;;;1.67;;
74309;SDS011;62722;51.142;17.052;2023-08-08T04:07:18;4.30;;;1.95;;
74309;SDS011;62722;51.142;17.052;2023-08-08T04:09:45;5.15;;;1.90;;
74309;SDS011;62722;51.142;17.052;2023-08-08T04:12:12;2.55;;;1.35;;
74309;SDS011;62722;51.142;17.052;2023-08-08T04:14:39;4.28;;;1.38;;
74309;SDS011;62722;51.142;17.052;2023-08-08T04:17:08;3.10;;;1.42;;
74309;SDS011;62722;51.142;17.052;2023-08-08T04:19:35;4.10;;;1.50;;
74309;SDS011;62722;51.142;17.052;2023-08-08T04:22:02;4.00;;;2.13;;
74309;SDS011;62722;51.142;17.052;2023-08-08T04:24:30;6.80;;;1.50;;
74309;SDS011;62722;51.142;17.052;2023-08-08T04:26:57;6.07;;;1.80;;
74309;SDS011;62722;51.142;17.052;2023-08-08T04:29:24;3.85;;;1.25;;
74309;SDS011;62722;51.142;17.052;2023-08-08T04:31:51;3.75;;;1.38;;
74309;SDS011;62722;51.142;17.052;2023-08-08T04:34:19;3.92;;;1.55;;
74309;SDS011;62722;51.142;17.052;2023-08-08T04:36:46;5.93;;;1.60;;
74309;SDS011;62722;51.142;17.052;2023-08-08T04:39:13;4.13;;;1.45;;
74309;SDS011;62722;51.142;17.052;2023-08-08T04:41:40;3.80;;;1.65;;
74309;SDS011;62722;51.142;17.052;2023-08-08T04:44:07;3.78;;;1.60;;
74309;SDS011;62722;51.142;17.052;2023-08-08T04:46:34;4.78;;;1.50;;
74309;SDS011;62722;51.142;17.052;2023-08-08T04:49:01;2.70;;;1.30;;
74309;SDS011;62722;51.142;17.052;2023-08-08T04:51:30;3.47;;;1.45;;
74309;SDS011;62722;51.142;17.052;2023-08-08T04:53:57;3.85;;;1.73;;
74309;SDS011;62722;51.142;17.052;2023-08-08T04:56:24;3.65;;;1.27;;
74309;SDS011;62722;51.142;17.052;2023-08-08T04:58:51;4.45;;;1.50;;
74309;SDS011;62722;51.142;17.052;2023-08-08T05:01:18;3.30;;;1.35;;
74309;SDS011;62722;51.142;17.052;2023-08-08T05:03:47;3.03;;;1.30;;
74309;SDS011;62722;51.142;17.052;2023-08-08T05:06:14;3.47;;;1.40;;
74309;SDS011;62722;51.142;17.052;2023-08-08T05:08:43;4.45;;;1.45;;
74309;SDS011;62722;51.142;17.052;2023-08-08T05:11:09;4.70;;;1.60;;
74309;SDS011;62722;51.142;17.052;2023-08-08T05:13:37;5.18;;;1.25;;
74309;SDS011;62722;51.142;17.052;2023-08-08T05:16:04;5.93;;;1.45;;
74309;SDS011;62722;51.142;17.052;2023-08-08T05:18:32;5.32;;;1.30;;
74309;SDS011;62722;51.142;17.052;2023-08-08T05:20:58;6.60;;;1.50;;
74309;SDS011;62722;51.142;17.052;2023-08-08T05:23:26;2.83;;;1.38;;
74309;SDS011;62722;51.142;17.052;2023-08-08T05:25:54;2.75;;;1.35;;
74309;SDS011;62722;51.142;17.052;2023-08-08T05:28:21;5.13;;;1.50;;
74309;SDS011;62722;51.142;17.052;2023-08-08T05:30:48;4.10;;;1.40;;
74309;SDS011;62722;51.142;17.052;2023-08-08T05:33:15;2.30;;;1.10;;
74309;SDS011;62722;51.142;17.052;2023-08-08T05:35:42;4.45;;;2.10;;
74309;SDS011;62722;51.142;17.052;2023-08-08T05:38:09;3.20;;;1.50;;
74309;SDS011;62722;51.142;17.052;2023-08-08T05:40:36;4.28;;;1.38;;
74309;SDS011;62722;51.142;17.052;2023-08-08T05:43:05;4.05;;;1.50;;
74309;SDS011;62722;51.142;17.052;2023-08-08T05:45:32;4.75;;;1.40;;
74309;SDS011;62722;51.142;17.052;2023-08-08T05:47:59;2.85;;;1.30;;
74309;SDS011;62722;51.142;17.052;2023-08-08T05:50:26;3.70;;;1.23;;
74309;SDS011;62722;51.142;17.052;2023-08-08T05:52:53;3.67;;;1.30;;
74309;SDS011;62722;51.142;17.052;2023-08-08T05:55:20;2.88;;;1.40;;
74309;SDS011;62722;51.142;17.052;2023-08-08T05:57:47;3.58;;;1.63;;
74309;SDS011;62722;51.142;17.052;2023-08-08T06:00:16;4.75;;;1.95;;
74309;SDS011;62722;51.142;17.052;2023-08-08T06:02:43;3.42;;;1.48;;
74309;SDS011;62722;51.142;17.052;2023-08-08T06:05:10;4.20;;;1.45;;
74309;SDS011;62722;51.142;17.052;2023-08-08T06:07:38;3.22;;;1.60;;
74309;SDS011;62722;51.142;17.052;2023-08-08T06:10:05;4.15;;;2.05;;
74309;SDS011;62722;51.142;17.052;2023-08-08T06:12:32;3.85;;;1.30;;
74309;SDS011;62722;51.142;17.052;2023-08-08T06:14:59;3.03;;;1.35;;
74309;SDS011;62722;51.142;17.052;2023-08-08T06:17:28;5.57;;;1.52;;
74309;SDS011;62722;51.142;17.052;2023-08-08T06:19:55;2.20;;;1.42;;
74309;SDS011;62722;51.142;17.052;2023-08-08T06:22:22;4.05;;;1.63;;
74309;SDS011;62722;51.142;17.052;2023-08-08T06:24:49;3.17;;;1.30;;
74309;SDS011;62722;51.142;17.052;2023-08-08T06:27:16;5.75;;;1.45;;
74309;SDS011;62722;51.142;17.052;2023-08-08T06:29:44;4.60;;;1.30;;
74309;SDS011;62722;51.142;17.052;2023-08-08T06:32:11;3.30;;;1.23;;
74309;SDS011;62722;51.142;17.052;2023-08-08T06:34:42;2.92;;;1.27;;
74309;SDS011;62722;51.142;17.052;2023-08-08T06:37:11;4.38;;;1.45;;
74309;SDS011;62722;51.142;17.052;2023-08-08T06:39:38;3.20;;;1.15;;
74309;SDS011;62722;51.142;17.052;2023-08-08T06:42:06;2.92;;;1.55;;
74309;SDS011;62722;51.142;17.052;2023-08-08T06:44:40;3.78;;;1.63;;
74309;SDS011;62722;51.142;17.052;2023-08-08T06:47:11;3.15;;;1.35;;
74309;SDS011;62722;51.142;17.052;2023-08-08T06:49:39;5.35;;;1.40;;
74309;SDS011;62722;51.142;17.052;2023-08-08T06:52:07;2.30;;;1.30;;
74309;SDS011;62722;51.142;17.052;2023-08-08T06:54:33;3.38;;;1.10;;
74309;SDS011;62722;51.142;17.052;2023-08-08T06:57:01;2.90;;;1.10;;
74309;SDS011;62722;51.142;17.052;2023-08-08T06:59:28;3.25;;;1.00;;
74309;SDS011;62722;51.142;17.052;2023-08-08T07:01:55;3.65;;;1.00;;
74309;SDS011;62722;51.142;17.052;2023-08-08T07:04:24;4.07;;;1.20;;
74309;SDS011;62722;51.142;17.052;2023-08-08T07:06:56;3.88;;;1.02;;
74309;SDS011;62722;51.142;17.052;2023-08-08T07:09:23;2.88;;;1.30;;
74309;SDS011;62722;51.142;17.052;2023-08-08T07:11:51;2.50;;;1.23;;
74309;SDS011;62722;51.142;17.052;2023-08-08T07:14:18;4.55;;;1.20;;
74309;SDS011;62722;51.142;17.052;2023-08-08T07:16:48;2.75;;;1.00;;
74309;SDS011;62722;51.142;17.052;2023-08-08T07:19:15;2.28;;;1.00;;
74309;SDS011;62722;51.142;17.052;2023-08-08T07:21:42;2.05;;;0.85;;
74309;SDS011;62722;51.142;17.052;2023-08-08T07:24:11;4.20;;;1.10;;
74309;SDS011;62722;51.142;17.052;2023-08-08T07:26:40;2.25;;;1.00;;
74309;SDS011;62722;51.142;17.052;2023-08-08T07:29:07;2.95;;;1.10;;
74309;SDS011;62722;51.142;17.052;2023-08-08T07:31:34;3.88;;;1.20;;
74309;SDS011;62722;51.142;17.052;2023-08-08T07:34:01;2.65;;;0.93;;
74309;SDS011;62722;51.142;17.052;2023-08-08T07:36:28;2.75;;;1.00;;
74309;SDS011;62722;51.142;17.052;2023-08-08T07:38:55;3.53;;;1.13;;
74309;SDS011;62722;51.142;17.052;2023-08-08T07:41:29;2.88;;;0.90;;
74309;SDS011;62722;51.142;17.052;2023-08-08T07:43:57;2.17;;;1.00;;
74309;SDS011;62722;51.142;17.052;2023-08-08T07:46:24;2.10;;;1.10;;
74309;SDS011;62722;51.142;17.052;2023-08-08T07:48:51;1.85;;;0.85;;
74309;SDS011;62722;51.142;17.052;2023-08-08T07:51:18;2.25;;;0.95;;
74309;SDS011;62722;51.142;17.052;2023-08-08T07:53:45;2.78;;;1.00;;
74309;SDS011;62722;51.142;17.052;2023-08-08T07:56:13;2.05;;;1.00;;
74309;SDS011;62722;51.142;17.052;2023-08-08T07:58:43;2.33;;;0.80;;
74309;SDS011;62722;51.142;17.052;2023-08-08T08:01:11;2.78;;;0.88;;
74309;SDS011;62722;51.142;17.052;2023-08-08T08:03:39;1.63;;;0.80;;
74309;SDS011;62722;51.142;17.052;2023-08-08T08:06:06;1.70;;;0.80;;
74309;SDS011;62722;51.142;17.052;2023-08-08T08:08:33;1.95;;;0.80;;
74309;SDS011;62722;51.142;17.052;2023-08-08T08:11:01;2.25;;;0.93;;
74309;SDS011;62722;51.142;17.052;2023-08-08T08:13:28;3.03;;;1.02;;
74309;SDS011;62722;51.142;17.052;2023-08-08T08:15:57;2.53;;;0.80;;
74309;SDS011;62722;51.142;17.052;2023-08-08T08:18:24;2.50;;;0.75;;
74309;SDS011;62722;51.142;17.052;2023-08-08T08:20:53;1.75;;;0.70;;
74309;SDS011;62722;51.142;17.052;2023-08-08T08:23:20;1.70;;;0.80;;
74309;SDS011;62722;51.142;17.052;2023-08-08T08:25:49;3.17;;;0.90;;
74309;SDS011;62722;51.142;17.052;2023-08-08T08:28:16;1.92;;;0.82;;
74309;SDS011;62722;51.142;17.052;2023-08-08T08:30:43;2.88;;;0.80;;
74309;SDS011;62722;51.142;17.052;2023-08-08T08:33:12;2.67;;;1.02;;
74309;SDS011;62722;51.142;17.052;2023-08-08T08:35:39;1.83;;;0.70;;
74309;SDS011;62722;51.142;17.052;2023-08-08T08:38:06;2.75;;;1.00;;
74309;SDS011;62722;51.142;17.052;2023-08-08T08:40:34;2.22;;;0.90;;
74309;SDS011;62722;51.142;17.052;2023-08-08T08:43:02;2.38;;;0.90;;
74309;SDS011;62722;51.142;17.052;2023-08-08T08:45:30;2.47;;;1.13;;
74309;SDS011;62722;51.142;17.052;2023-08-08T08:47:57;2.95;;;1.00;;
74309;SDS011;62722;51.142;17.052;2023-08-08T08:50:29;2.17;;;1.00;;
74309;SDS011;62722;51.142;17.052;2023-08-08T08:52:58;2.75;;;0.95;;
74309;SDS011;62722;51.142;17.052;2023-08-08T08:55:25;3.17;;;0.80;;
74309;SDS011;62722;51.142;17.052;2023-08-08T08:57:53;3.10;;;1.02;;
74309;SDS011;62722;51.142;17.052;2023-08-08T09:00:22;2.83;;;0.90;;
74309;SDS011;62722;51.142;17.052;2023-08-08T09:02:50;2.65;;;0.88;;
74309;SDS011;62722;51.142;17.052;2023-08-08T09:05:17;1.55;;;0.70;;
74309;SDS011;62722;51.142;17.052;2023-08-08T09:07:48;2.35;;;0.90;;
74309;SDS011;62722;51.142;17.052;2023-08-08T09:10:17;2.95;;;1.00;;
74309;SDS011;62722;51.142;17.052;2023-08-08T09:12:44;3.15;;;1.00;;
74309;SDS011;62722;51.142;17.052;2023-08-08T09:15:12;1.77;;;0.80;;
74309;SDS011;62722;51.142;17.052;2023-08-08T09:17:40;2.17;;;0.90;;
74309;SDS011;62722;51.142;17.052;2023-08-08T09:20:11;4.18;;;0.80;;
74309;SDS011;62722;51.142;17.052;2023-08-08T09:22:42;2.85;;;0.80;;
74309;SDS011;62722;51.142;17.052;2023-08-08T09:25:17;1.60;;;0.88;;
74309;SDS011;62722;51.142;17.052;2023-08-08T09:27:44;3.35;;;1.15;;
74309;SDS011;62722;51.142;17.052;2023-08-08T09:30:11;3.83;;;1.40;;
74309;SDS011;62722;51.142;17.052;2023-08-08T09:32:40;2.83;;;1.63;;
74309;SDS011;62722;51.142;17.052;2023-08-08T09:35:07;1.55;;;0.80;;
74309;SDS011;62722;51.142;17.052;2023-08-08T09:37:36;4.03;;;1.00;;
74309;SDS011;62722;51.142;17.052;2023-08-08T09:40:04;2.80;;;1.10;;
74309;SDS011;62722;51.142;17.052;2023-08-08T09:42:36;2.58;;;0.90;;
74309;SDS011;62722;51.142;17.052;2023-08-08T09:45:05;2.60;;;0.93;;
74309;SDS011;62722;51.142;17.052;2023-08-08T09:47:32;2.70;;;0.90;;
74309;SDS011;62722;51.142;17.052;2023-08-08T09:50:00;2.42;;;1.00;;
74309;SDS011;62722;51.142;17.052;2023-08-08T09:52:30;2.10;;;1.00;;
74309;SDS011;62722;51.142;17.052;2023-08-08T09:54:58;3.20;;;1.40;;
74309;SDS011;62722;51.142;17.052;2023-08-08T09:57:25;3.25;;;0.93;;
74309;SDS011;62722;51.142;17.052;2023-08-08T10:00:00;2.53;;;1.05;;
74309;SDS011;62722;51.142;17.052;2023-08-08T10:02:28;2.60;;;0.95;;
74309;SDS011;62722;51.142;17.052;2023-08-08T10:04:56;1.73;;;1.00;;
74309;SDS011;62722;51.142;17.052;2023-08-08T10:07:24;2.83;;;1.10;;
74309;SDS011;62722;51.142;17.052;2023-08-08T10:09:52;4.72;;;1.10;;
74309;SDS011;62722;51.142;17.052;2023-08-08T10:12:19;3.35;;;1.00;;
74309;SDS011;62722;51.142;17.052;2023-08-08T10:14:47;2.83;;;1.10;;
74309;SDS011;62722;51.142;17.052;2023-08-08T10:17:17;2.47;;;1.10;;
74309;SDS011;62722;51.142;17.052;2023-08-08T10:19:52;2.85;;;1.20;;
74309;SDS011;62722;51.142;17.052;2023-08-08T10:22:20;2.28;;;1.10;;
74309;SDS011;62722;51.142;17.052;2023-08-08T10:24:51;2.60;;;1.00;;
74309;SDS011;62722;51.142;17.052;2023-08-08T10:27:26;3.20;;;1.00;;
74309;SDS011;62722;51.142;17.052;2023-08-08T10:30:00;2.15;;;0.98;;
74309;SDS011;62722;51.142;17.052;2023-08-08T10:32:29;1.70;;;0.80;;
74309;SDS011;62722;51.142;17.052;2023-08-08T10:35:05;2.28;;;1.00;;
74309;SDS011;62722;51.142;17.052;2023-08-08T10:37:33;3.53;;;1.00;;
74309;SDS011;62722;51.142;17.052;2023-08-08T10:40:01;3.47;;;1.23;;
74309;SDS011;62722;51.142;17.052;2023-08-08T10:42:31;4.00;;;1.17;;
74309;SDS011;62722;51.142;17.052;2023-08-08T10:45:00;2.15;;;0.77;;
74309;SDS011;62722;51.142;17.052;2023-08-08T10:47:32;2.53;;;1.10;;
74309;SDS011;62722;51.142;17.052;2023-08-08T10:50:03;3.33;;;1.15;;
74309;SDS011;62722;51.142;17.052;2023-08-08T10:52:30;2.03;;;1.00;;
74309;SDS011;62722;51.142;17.052;2023-08-08T10:55:00;3.45;;;1.38;;
74309;SDS011;62722;51.142;17.052;2023-08-08T10:57:35;2.22;;;0.90;;
74309;SDS011;62722;51.142;17.052;2023-08-08T11:00:18;2.30;;;0.93;;
74309;SDS011;62722;51.142;17.052;2023-08-08T11:02:47;2.95;;;1.13;;
74309;SDS011;62722;51.142;17.052;2023-08-08T11:05:14;3.88;;;1.25;;
74309;SDS011;62722;51.142;17.052;2023-08-08T11:07:41;3.00;;;0.93;;
74309;SDS011;62722;51.142;17.052;2023-08-08T11:10:09;2.35;;;1.00;;
74309;SDS011;62722;51.142;17.052;2023-08-08T11:12:36;3.97;;;0.98;;
74309;SDS011;62722;51.142;17.052;2023-08-08T11:15:04;2.38;;;0.95;;
74309;SDS011;62722;51.142;17.052;2023-08-08T11:17:32;2.47;;;1.10;;
74309;SDS011;62722;51.142;17.052;2023-08-08T11:20:00;2.90;;;1.10;;
74309;SDS011;62722;51.142;17.052;2023-08-08T11:22:31;3.20;;;1.05;;
74309;SDS011;62722;51.142;17.052;2023-08-08T11:24:59;3.10;;;1.30;;
74309;SDS011;62722;51.142;17.052;2023-08-08T11:27:29;3.13;;;1.00;;
74309;SDS011;62722;51.142;17.052;2023-08-08T11:29:56;3.58;;;1.30;;
74309;SDS011;62722;51.142;17.052;2023-08-08T11:32:25;2.72;;;1.30;;
74309;SDS011;62722;51.142;17.052;2023-08-08T11:34:54;2.58;;;1.10;;
74309;SDS011;62722;51.142;17.052;2023-08-08T11:37:22;2.40;;;1.02;;
74309;SDS011;62722;51.142;17.052;2023-08-08T11:39:51;3.80;;;1.10;;
74309;SDS011;62722;51.142;17.052;2023-08-08T11:42:18;2.83;;;1.13;;
74309;SDS011;62722;51.142;17.052;2023-08-08T11:44:47;3.38;;;1.35;;
74309;SDS011;62722;51.142;17.052;2023-08-08T11:47:16;2.20;;;1.30;;
74309;SDS011;62722;51.142;17.052;2023-08-08T11:49:43;3.15;;;1.35;;
74309;SDS011;62722;51.142;17.052;2023-08-08T11:52:11;2.15;;;1.20;;
74309;SDS011;62722;51.142;17.052;2023-08-08T11:54:41;3.38;;;1.30;;
74309;SDS011;62722;51.142;17.052;2023-08-08T11:57:08;2.72;;;1.20;;
74309;SDS011;62722;51.142;17.052;2023-08-08T11:59:38;2.67;;;1.05;;
74309;SDS011;62722;51.142;17.052;2023-08-08T12:02:05;3.65;;;1.30;;
74309;SDS011;62722;51.142;17.052;2023-08-08T12:04:33;3.20;;;1.23;;
74309;SDS011;62722;51.142;17.052;2023-08-08T12:07:00;2.10;;;1.13;;
74309;SDS011;62722;51.142;17.052;2023-08-08T12:09:28;2.83;;;1.40;;
74309;SDS011;62722;51.142;17.052;2023-08-08T12:12:00;2.42;;;1.20;;
74309;SDS011;62722;51.142;17.052;2023-08-08T12:14:27;3.17;;;1.23;;
74309;SDS011;62722;51.142;17.052;2023-08-08T12:16:54;2.60;;;1.27;;
74309;SDS011;62722;51.142;17.052;2023-08-08T12:19:22;2.65;;;1.33;;
74309;SDS011;62722;51.142;17.052;2023-08-08T12:21:50;3.05;;;1.33;;
74309;SDS011;62722;51.142;17.052;2023-08-08T12:24:17;3.28;;;1.25;;
74309;SDS011;62722;51.142;17.052;2023-08-08T12:26:44;3.10;;;1.35;;
74309;SDS011;62722;51.142;17.052;2023-08-08T12:29:13;2.53;;;1.25;;
74309;SDS011;62722;51.142;17.052;2023-08-08T12:31:40;2.40;;;1.60;;
74309;SDS011;62722;51.142;17.052;2023-08-08T12:34:07;3.72;;;1.40;;
74309;SDS011;62722;51.142;17.052;2023-08-08T12:36:35;4.85;;;1.67;;
74309;SDS011;62722;51.142;17.052;2023-08-08T12:39:03;2.90;;;1.17;;
74309;SDS011;62722;51.142;17.052;2023-08-08T12:41:30;3.17;;;1.30;;
74309;SDS011;62722;51.142;17.052;2023-08-08T12:43:57;3.92;;;1.52;;
74309;SDS011;62722;51.142;17.052;2023-08-08T12:46:25;2.65;;;1.10;;
74309;SDS011;62722;51.142;17.052;2023-08-08T12:48:53;4.13;;;1.10;;
74309;SDS011;62722;51.142;17.052;2023-08-08T12:51:19;3.45;;;1.20;;
74309;SDS011;62722;51.142;17.052;2023-08-08T12:53:47;2.92;;;1.30;;
74309;SDS011;62722;51.142;17.052;2023-08-08T12:56:14;1.98;;;1.02;;
74309;SDS011;62722;51.142;17.052;2023-08-08T12:58:41;2.15;;;1.17;;
74309;SDS011;62722;51.142;17.052;2023-08-08T13:01:08;3.70;;;1.30;;
74309;SDS011;62722;51.142;17.052;2023-08-08T13:03:37;2.50;;;1.23;;
74309;SDS011;62722;51.142;17.052;2023-08-08T13:06:05;2.47;;;1.25;;
74309;SDS011;62722;51.142;17.052;2023-08-08T13:08:32;3.72;;;1.20;;
74309;SDS011;62722;51.142;17.052;2023-08-08T13:10:59;3.05;;;1.40;;
74309;SDS011;62722;51.142;17.052;2023-08-08T13:13:26;2.00;;;1.23;;
74309;SDS011;62722;51.142;17.052;2023-08-08T13:15:54;3.88;;;1.40;;
74309;SDS011;62722;51.142;17.052;2023-08-08T13:18:22;3.40;;;1.15;;
74309;SDS011;62722;51.142;17.052;2023-08-08T13:20:50;3.22;;;1.20;;
74309;SDS011;62722;51.142;17.052;2023-08-08T13:23:18;3.90;;;1.20;;
74309;SDS011;62722;51.142;17.052;2023-08-08T13:25:45;2.75;;;1.25;;
74309;SDS011;62722;51.142;17.052;2023-08-08T13:28:12;3.30;;;1.20;;
74309;SDS011;62722;51.142;17.052;2023-08-08T13:30:40;2.78;;;1.38;;
74309;SDS011;62722;51.142;17.052;2023-08-08T13:33:08;3.97;;;1.20;;
74309;SDS011;62722;51.142;17.052;2023-08-08T13:35:35;2.95;;;1.10;;
74309;SDS011;62722;51.142;17.052;2023-08-08T13:38:05;4.63;;;2.28;;
74309;SDS011;62722;51.142;17.052;2023-08-08T13:40:33;3.45;;;1.40;;
74309;SDS011;62722;51.142;17.052;2023-08-08T13:43:01;2.25;;;1.20;;
74309;SDS011;62722;51.142;17.052;2023-08-08T13:45:29;2.28;;;1.40;;
74309;SDS011;62722;51.142;17.052;2023-08-08T13:48:00;3.45;;;1.45;;
74309;SDS011;62722;51.142;17.052;2023-08-08T13:50:27;7.88;;;1.63;;
74309;SDS011;62722;51.142;17.052;2023-08-08T13:52:57;4.65;;;1.50;;
74309;SDS011;62722;51.142;17.052;2023-08-08T13:55:26;2.60;;;1.10;;
74309;SDS011;62722;51.142;17.052;2023-08-08T13:57:54;2.80;;;1.20;;
74309;SDS011;62722;51.142;17.052;2023-08-08T14:00:24;3.28;;;1.33;;
74309;SDS011;62722;51.142;17.052;2023-08-08T14:02:56;3.42;;;1.35;;
74309;SDS011;62722;51.142;17.052;2023-08-08T14:05:25;2.17;;;1.27;;
74309;SDS011;62722;51.142;17.052;2023-08-08T14:07:53;2.53;;;1.42;;
74309;SDS011;62722;51.142;17.052;2023-08-08T14:10:22;2.75;;;1.15;;
74309;SDS011;62722;51.142;17.052;2023-08-08T14:12:51;3.00;;;1.20;;
74309;SDS011;62722;51.142;17.052;2023-08-08T14:15:19;2.72;;;1.10;;
74309;SDS011;62722;51.142;17.052;2023-08-08T14:17:48;2.30;;;1.20;;
74309;SDS011;62722;51.142;17.052;2023-08-08T14:20:16;3.20;;;1.30;;
74309;SDS011;62722;51.142;17.052;2023-08-08T14:22:44;2.72;;;1.33;;
74309;SDS011;62722;51.142;17.052;2023-08-08T14:25:13;3.60;;;1.45;;
74309;SDS011;62722;51.142;17.052;2023-08-08T14:27:40;2.85;;;1.10;;
74309;SDS011;62722;51.142;17.052;2023-08-08T14:30:09;1.80;;;1.13;;
74309;SDS011;62722;51.142;17.052;2023-08-08T14:32:37;3.33;;;1.33;;
74309;SDS011;62722;51.142;17.052;2023-08-08T14:35:04;5.90;;;1.30;;
74309;SDS011;62722;51.142;17.052;2023-08-08T14:37:31;2.65;;;1.15;;